sensor_id;sensor_type;location;lat;lon;timestamp;pressure;altitude;pressure_sealevel;temperature;humidity
3206;BME280;1615;53.602;11.418;2022-12-11T00:01:50;100886.53;;;1.09;100.00
3206;BME280;1615;53.602;11.418;2022-12-11T00:04:15;100872.91;;;1.04;100.00
3206;BME280;1615;53.602;11.418;2022-12-11T00:06:40;100794.44;;;0.46;100.00
3206;BME280;1615;53.602;11.418;2022-12-11T00:09:06;100816.47;;;0.73;100.00
3206;BME280;1615;53.602;11.418;2022-12-11T00:11:32;100873.91;;;1.21;100.00
3206;BME280;1615;53.602;11.418;2022-12-11T00:13:57;100878.59;;;1.14;100.00
3206;BME280;1615;53.602;11.418;2022-12-11T00:16:23;100814.47;;;0.68;100.00
3206;BME280;1615;53.602;11.418;2022-12-11T00:18:48;100883.69;;;1.04;100.00
3206;BME280;1615;53.602;11.418;2022-12-11T00:21:14;100869.50;;;0.97;100.00
3206;BME280;1615;53.602;11.418;2022-12-11T00:23:40;100869.50;;;0.79;100.00
3206;BME280;1615;53.602;11.418;2022-12-11T00:26:08;100866.53;;;0.98;100.00
3206;BME280;1615;53.602;11.418;2022-12-11T00:28:34;100870.00;;;1.05;100.00
3206;BME280;1615;53.602;11.418;2022-12-11T00:31:07;100805.94;;;0.53;100.00
3206;BME280;1615;53.602;11.418;2022-12-11T00:33:32;100860.06;;;0.88;100.00
3206;BME280;1615;53.602;11.418;2022-12-11T00:35:58;100807.69;;;0.48;100.00
3206;BME280;1615;53.602;11.418;2022-12-11T00:38:23;100861.91;;;0.87;100.00
3206;BME280;1615;53.602;11.418;2022-12-11T00:40:49;100856.31;;;0.89;100.00
3206;BME280;1615;53.602;11.418;2022-12-11T00:43:14;100867.41;;;0.81;100.00
3206;BME280;1615;53.602;11.418;2022-12-11T00:45:42;100845.72;;;0.87;100.00
3206;BME280;1615;53.602;11.418;2022-12-11T00:48:09;100830.81;;;0.85;100.00
3206;BME280;1615;53.602;11.418;2022-12-11T00:50:35;100842.94;;;0.94;100.00
3206;BME280;1615;53.602;11.418;2022-12-11T00:53:01;100849.13;;;0.83;100.00
3206;BME280;1615;53.602;11.418;2022-12-11T00:55:27;100843.56;;;0.78;100.00
3206;BME280;1615;53.602;11.418;2022-12-11T00:57:54;100783.66;;;0.46;100.00
3206;BME280;1615;53.602;11.418;2022-12-11T01:00:20;100825.06;;;0.81;100.00
3206;BME280;1615;53.602;11.418;2022-12-11T01:02:47;100846.56;;;0.88;100.00
3206;BME280;1615;53.602;11.418;2022-12-11T01:05:12;100832.22;;;0.76;100.00
3206;BME280;1615;53.602;11.418;2022-12-11T01:07:37;100812.97;;;0.54;100.00
3206;BME280;1615;53.602;11.418;2022-12-11T01:10:03;100850.88;;;0.77;100.00
3206;BME280;1615;53.602;11.418;2022-12-11T01:12:48;100789.19;;;0.33;100.00
3206;BME280;1615;53.602;11.418;2022-12-11T01:15:14;100838.03;;;0.73;100.00
3206;BME280;1615;53.602;11.418;2022-12-11T01:17:39;100773.84;;;0.34;100.00
3206;BME280;1615;53.602;11.418;2022-12-11T01:20:05;100846.91;;;0.62;100.00
3206;BME280;1615;53.602;11.418;2022-12-11T01:22:30;100848.53;;;0.63;100.00
3206;BME280;1615;53.602;11.418;2022-12-11T01:24:56;100771.63;;;0.13;100.00
3206;BME280;1615;53.602;11.418;2022-12-11T01:27:21;100841.88;;;0.65;100.00
3206;BME280;1615;53.602;11.418;2022-12-11T01:29:47;100841.06;;;0.65;100.00
3206;BME280;1615;53.602;11.418;2022-12-11T01:32:13;100851.94;;;0.58;100.00
3206;BME280;1615;53.602;11.418;2022-12-11T01:34:39;100868.94;;;0.59;100.00
3206;BME280;1615;53.602;11.418;2022-12-11T01:37:04;100852.38;;;0.55;100.00
3206;BME280;1615;53.602;11.418;2022-12-11T01:39:29;100822.75;;;0.37;100.00
3206;BME280;1615;53.602;11.418;2022-12-11T01:41:59;100857.50;;;0.45;100.00
3206;BME280;1615;53.602;11.418;2022-12-11T01:46:51;100764.41;;;-0.11;100.00
3206;BME280;1615;53.602;11.418;2022-12-11T01:49:19;100850.69;;;0.43;100.00
3206;BME280;1615;53.602;11.418;2022-12-11T01:51:58;100858.22;;;0.34;100.00
3206;BME280;1615;53.602;11.418;2022-12-11T01:54:27;100851.88;;;0.29;100.00
3206;BME280;1615;53.602;11.418;2022-12-11T01:56:55;100865.56;;;0.27;100.00
3206;BME280;1615;53.602;11.418;2022-12-11T01:59:24;100886.00;;;0.17;100.00
3206;BME280;1615;53.602;11.418;2022-12-11T02:01:57;100854.09;;;0.14;100.00
3206;BME280;1615;53.602;11.418;2022-12-11T02:04:23;100763.19;;;-0.51;100.00
3206;BME280;1615;53.602;11.418;2022-12-11T02:06:50;100856.94;;;0.01;100.00
3206;BME280;1615;53.602;11.418;2022-12-11T02:09:25;100854.69;;;-0.02;100.00
3206;BME280;1615;53.602;11.418;2022-12-11T02:12:13;100860.53;;;-0.05;100.00
3206;BME280;1615;53.602;11.418;2022-12-11T02:15:00;100864.34;;;-0.13;100.00
3206;BME280;1615;53.602;11.418;2022-12-11T02:17:39;100832.75;;;-0.23;100.00
3206;BME280;1615;53.602;11.418;2022-12-11T02:20:23;100872.63;;;-0.14;100.00
3206;BME280;1615;53.602;11.418;2022-12-11T02:28:34;100865.88;;;-0.23;100.00
3206;BME280;1615;53.602;11.418;2022-12-11T02:33:47;100859.72;;;-0.30;100.00
3206;BME280;1615;53.602;11.418;2022-12-11T02:36:16;100854.16;;;-0.35;100.00
3206;BME280;1615;53.602;11.418;2022-12-11T02:38:46;100855.66;;;-0.39;100.00
3206;BME280;1615;53.602;11.418;2022-12-11T02:41:15;100820.22;;;-0.60;100.00
3206;BME280;1615;53.602;11.418;2022-12-11T02:43:42;100851.75;;;-0.43;100.00
3206;BME280;1615;53.602;11.418;2022-12-11T02:46:09;100856.53;;;-0.45;100.00
3206;BME280;1615;53.602;11.418;2022-12-11T02:48:35;100852.63;;;-0.49;100.00
3206;BME280;1615;53.602;11.418;2022-12-11T02:51:02;100853.06;;;-0.52;100.00
3206;BME280;1615;53.602;11.418;2022-12-11T02:53:31;100858.88;;;-0.55;100.00
3206;BME280;1615;53.602;11.418;2022-12-11T02:56:26;100854.72;;;-0.51;100.00
3206;BME280;1615;53.602;11.418;2022-12-11T02:58:58;100844.84;;;-0.57;100.00
3206;BME280;1615;53.602;11.418;2022-12-11T03:01:25;100855.16;;;-0.54;100.00
3206;BME280;1615;53.602;11.418;2022-12-11T03:03:52;100846.31;;;-0.61;100.00
3206;BME280;1615;53.602;11.418;2022-12-11T03:06:20;100846.53;;;-0.63;100.00
3206;BME280;1615;53.602;11.418;2022-12-11T03:08:48;100856.03;;;-0.60;100.00
3206;BME280;1615;53.602;11.418;2022-12-11T03:11:16;100849.38;;;-0.57;100.00
3206;BME280;1615;53.602;11.418;2022-12-11T03:13:42;100856.31;;;-0.68;100.00
3206;BME280;1615;53.602;11.418;2022-12-11T03:16:51;100763.56;;;-1.21;100.00
3206;BME280;1615;53.602;11.418;2022-12-11T03:19:11;100869.66;;;-0.55;100.00
3206;BME280;1615;53.602;11.418;2022-12-11T03:21:51;100860.16;;;-0.57;100.00
3206;BME280;1615;53.602;11.418;2022-12-11T03:24:32;100847.78;;;-0.65;100.00
3206;BME280;1615;53.602;11.418;2022-12-11T03:27:06;100867.66;;;-0.66;100.00
3206;BME280;1615;53.602;11.418;2022-12-11T03:29:37;100869.38;;;-0.71;100.00
3206;BME280;1615;53.602;11.418;2022-12-11T03:32:13;100757.63;;;-1.29;100.00
3206;BME280;1615;53.602;11.418;2022-12-11T03:34:48;100848.09;;;-0.79;100.00
3206;BME280;1615;53.602;11.418;2022-12-11T03:37:16;100840.50;;;-0.89;100.00
3206;BME280;1615;53.602;11.418;2022-12-11T03:39:47;100833.50;;;-0.90;100.00
3206;BME280;1615;53.602;11.418;2022-12-11T03:42:14;100750.09;;;-1.52;100.00
3206;BME280;1615;53.602;11.418;2022-12-11T03:44:43;100832.50;;;-1.02;100.00
3206;BME280;1615;53.602;11.418;2022-12-11T03:47:14;100756.25;;;-1.45;100.00
3206;BME280;1615;53.602;11.418;2022-12-11T03:49:43;100840.00;;;-1.04;100.00
3206;BME280;1615;53.602;11.418;2022-12-11T03:52:11;100695.09;;;-1.87;100.00
3206;BME280;1615;53.602;11.418;2022-12-11T03:54:41;100913.84;;;-1.06;100.00
3206;BME280;1615;53.602;11.418;2022-12-11T03:57:09;100763.97;;;-1.55;100.00
3206;BME280;1615;53.602;11.418;2022-12-11T03:59:36;100834.22;;;-1.07;100.00
3206;BME280;1615;53.602;11.418;2022-12-11T04:02:02;100830.28;;;-1.05;100.00
3206;BME280;1615;53.602;11.418;2022-12-11T04:04:35;100831.06;;;-1.04;100.00
3206;BME280;1615;53.602;11.418;2022-12-11T04:07:00;100838.94;;;-1.03;100.00
3206;BME280;1615;53.602;11.418;2022-12-11T04:09:25;100842.25;;;-1.01;100.00
3206;BME280;1615;53.602;11.418;2022-12-11T04:11:51;100842.84;;;-0.99;100.00
3206;BME280;1615;53.602;11.418;2022-12-11T04:14:16;100839.75;;;-0.96;100.00
3206;BME280;1615;53.602;11.418;2022-12-11T04:17:00;100835.56;;;-0.92;100.00
3206;BME280;1615;53.602;11.418;2022-12-11T04:19:26;100838.41;;;-0.87;100.00
3206;BME280;1615;53.602;11.418;2022-12-11T04:22:11;100837.63;;;-0.87;100.00
3206;BME280;1615;53.602;11.418;2022-12-11T04:24:55;100787.13;;;-1.23;100.00
3206;BME280;1615;53.602;11.418;2022-12-11T04:27:20;100819.03;;;-0.95;100.00
3206;BME280;1615;53.602;11.418;2022-12-11T04:30:08;100843.00;;;-0.87;100.00
3206;BME280;1615;53.602;11.418;2022-12-11T04:32:34;100848.81;;;-0.97;100.00
3206;BME280;1615;53.602;11.418;2022-12-11T04:34:59;100817.88;;;-1.06;100.00
3206;BME280;1615;53.602;11.418;2022-12-11T04:37:27;100835.56;;;-0.92;100.00
3206;BME280;1615;53.602;11.418;2022-12-11T04:39:52;100838.06;;;-0.97;100.00
3206;BME280;1615;53.602;11.418;2022-12-11T04:42:18;100853.00;;;-1.01;100.00
3206;BME280;1615;53.602;11.418;2022-12-11T04:44:43;100838.94;;;-1.03;100.00
3206;BME280;1615;53.602;11.418;2022-12-11T04:47:08;100754.25;;;-1.56;100.00
3206;BME280;1615;53.602;11.418;2022-12-11T04:49:34;100787.44;;;-1.37;100.00
3206;BME280;1615;53.602;11.418;2022-12-11T04:51:59;100764.13;;;-1.50;100.00
3206;BME280;1615;53.602;11.418;2022-12-11T04:54:24;100855.53;;;-1.06;100.00
3206;BME280;1615;53.602;11.418;2022-12-11T04:56:50;100857.19;;;-1.11;100.00
3206;BME280;1615;53.602;11.418;2022-12-11T04:59:15;100841.94;;;-1.17;100.00
3206;BME280;1615;53.602;11.418;2022-12-11T05:01:40;100852.66;;;-1.11;100.00
3206;BME280;1615;53.602;11.418;2022-12-11T05:04:06;100850.38;;;-1.14;100.00
3206;BME280;1615;53.602;11.418;2022-12-11T05:06:31;100852.66;;;-1.11;100.00
3206;BME280;1615;53.602;11.418;2022-12-11T05:08:56;100841.09;;;-1.18;100.00
3206;BME280;1615;53.602;11.418;2022-12-11T05:11:22;100851.50;;;-1.28;100.00
3206;BME280;1615;53.602;11.418;2022-12-11T05:13:48;100849.59;;;-1.21;100.00
3206;BME280;1615;53.602;11.418;2022-12-11T05:16:15;100841.72;;;-1.16;100.00
3206;BME280;1615;53.602;11.418;2022-12-11T05:18:40;100808.56;;;-1.41;100.00
3206;BME280;1615;53.602;11.418;2022-12-11T05:21:09;100811.75;;;-1.19;100.00
3206;BME280;1615;53.602;11.418;2022-12-11T05:23:35;100845.94;;;-0.95;100.00
3206;BME280;1615;53.602;11.418;2022-12-11T05:26:03;100855.47;;;-0.99;100.00
3206;BME280;1615;53.602;11.418;2022-12-11T05:28:30;100850.50;;;-0.96;100.00
3206;BME280;1615;53.602;11.418;2022-12-11T05:30:57;100860.47;;;-1.03;100.00
3206;BME280;1615;53.602;11.418;2022-12-11T05:33:24;100845.13;;;-0.96;100.00
3206;BME280;1615;53.602;11.418;2022-12-11T05:35:49;100847.13;;;-0.85;100.00
3206;BME280;1615;53.602;11.418;2022-12-11T05:38:14;100845.41;;;-0.79;100.00
3206;BME280;1615;53.602;11.418;2022-12-11T05:40:40;100787.28;;;-1.11;100.00
3206;BME280;1615;53.602;11.418;2022-12-11T05:43:05;100847.00;;;-0.72;100.00
3206;BME280;1615;53.602;11.418;2022-12-11T05:45:31;100850.09;;;-0.99;100.00
3206;BME280;1615;53.602;11.418;2022-12-11T05:47:56;100733.81;;;-1.63;100.00
3206;BME280;1615;53.602;11.418;2022-12-11T05:50:21;100849.00;;;-0.92;100.00
3206;BME280;1615;53.602;11.418;2022-12-11T05:52:46;100845.38;;;-0.73;100.00
3206;BME280;1615;53.602;11.418;2022-12-11T05:55:12;100837.81;;;-0.89;100.00
3206;BME280;1615;53.602;11.418;2022-12-11T05:57:37;100854.91;;;-0.77;100.00
3206;BME280;1615;53.602;11.418;2022-12-11T06:00:04;100847.72;;;-0.58;100.00
3206;BME280;1615;53.602;11.418;2022-12-11T06:02:29;100849.88;;;-0.43;100.00
3206;BME280;1615;53.602;11.418;2022-12-11T06:04:54;100718.28;;;-1.24;100.00
3206;BME280;1615;53.602;11.418;2022-12-11T06:07:20;100822.00;;;-0.48;100.00
3206;BME280;1615;53.602;11.418;2022-12-11T06:09:45;100808.59;;;-0.37;100.00
3206;BME280;1615;53.602;11.418;2022-12-11T06:12:10;100809.34;;;-0.30;100.00
3206;BME280;1615;53.602;11.418;2022-12-11T06:14:36;100818.16;;;-0.41;100.00
3206;BME280;1615;53.602;11.418;2022-12-11T06:17:01;100819.50;;;-0.49;100.00
3206;BME280;1615;53.602;11.418;2022-12-11T06:19:26;100826.06;;;-0.46;100.00
3206;BME280;1615;53.602;11.418;2022-12-11T06:21:51;100818.31;;;-0.36;100.00
3206;BME280;1615;53.602;11.418;2022-12-11T06:24:17;100829.09;;;-0.36;100.00
3206;BME280;1615;53.602;11.418;2022-12-11T06:26:42;100684.75;;;-1.21;100.00
3206;BME280;1615;53.602;11.418;2022-12-11T06:29:07;100824.72;;;-0.30;100.00
3206;BME280;1615;53.602;11.418;2022-12-11T06:31:33;100834.31;;;-0.41;100.00
3206;BME280;1615;53.602;11.418;2022-12-11T06:33:58;100824.06;;;-0.50;100.00
3206;BME280;1615;53.602;11.418;2022-12-11T06:36:24;100728.50;;;-1.08;100.00
3206;BME280;1615;53.602;11.418;2022-12-11T06:38:50;100843.41;;;-0.35;100.00
3206;BME280;1615;53.602;11.418;2022-12-11T06:41:16;100766.44;;;-0.67;100.00
3206;BME280;1615;53.602;11.418;2022-12-11T06:43:41;100869.19;;;-0.21;100.00
3206;BME280;1615;53.602;11.418;2022-12-11T06:46:15;100827.44;;;-0.12;100.00
3206;BME280;1615;53.602;11.418;2022-12-11T06:48:41;100779.78;;;-0.54;100.00
3206;BME280;1615;53.602;11.418;2022-12-11T06:51:14;100830.28;;;-0.07;100.00
3206;BME280;1615;53.602;11.418;2022-12-11T06:53:40;100827.38;;;-0.06;100.00
3206;BME280;1615;53.602;11.418;2022-12-11T06:56:09;100788.22;;;-0.26;100.00
3206;BME280;1615;53.602;11.418;2022-12-11T06:58:35;100817.34;;;-0.17;100.00
3206;BME280;1615;53.602;11.418;2022-12-11T07:01:02;100782.06;;;-0.33;100.00
3206;BME280;1615;53.602;11.418;2022-12-11T07:03:30;100805.06;;;-0.13;100.00
3206;BME280;1615;53.602;11.418;2022-12-11T07:06:00;100810.31;;;-0.17;100.00
3206;BME280;1615;53.602;11.418;2022-12-11T07:08:27;100815.59;;;-0.11;100.00
3206;BME280;1615;53.602;11.418;2022-12-11T07:10:53;100815.75;;;-0.06;100.00
3206;BME280;1615;53.602;11.418;2022-12-11T07:13:19;100817.66;;;-0.07;100.00
3206;BME280;1615;53.602;11.418;2022-12-11T07:15:44;100815.31;;;-0.03;100.00
3206;BME280;1615;53.602;11.418;2022-12-11T07:18:09;100740.59;;;-0.50;100.00
3206;BME280;1615;53.602;11.418;2022-12-11T07:20:35;100794.59;;;-0.03;100.00
3206;BME280;1615;53.602;11.418;2022-12-11T07:23:00;100821.34;;;0.17;100.00
3206;BME280;1615;53.602;11.418;2022-12-11T07:25:25;100827.81;;;0.27;100.00
3206;BME280;1615;53.602;11.418;2022-12-11T07:27:51;100833.59;;;0.31;100.00
3206;BME280;1615;53.602;11.418;2022-12-11T07:30:16;100818.63;;;0.35;100.00
3206;BME280;1615;53.602;11.418;2022-12-11T07:32:41;100817.25;;;0.26;100.00
3206;BME280;1615;53.602;11.418;2022-12-11T07:35:07;100826.56;;;0.48;100.00
3206;BME280;1615;53.602;11.418;2022-12-11T07:37:32;100818.31;;;0.43;100.00
3206;BME280;1615;53.602;11.418;2022-12-11T07:39:58;100825.03;;;0.52;100.00
3206;BME280;1615;53.602;11.418;2022-12-11T07:42:23;100827.28;;;0.55;100.00
3206;BME280;1615;53.602;11.418;2022-12-11T07:44:48;100827.44;;;0.60;100.00
3206;BME280;1615;53.602;11.418;2022-12-11T07:47:13;100826.06;;;0.69;100.00
3206;BME280;1615;53.602;11.418;2022-12-11T07:49:39;100826.47;;;0.84;100.00
3206;BME280;1615;53.602;11.418;2022-12-11T07:52:04;100839.59;;;0.80;100.00
3206;BME280;1615;53.602;11.418;2022-12-11T07:54:29;100755.06;;;0.27;100.00
3206;BME280;1615;53.602;11.418;2022-12-11T07:56:55;100834.25;;;0.92;100.00
3206;BME280;1615;53.602;11.418;2022-12-11T07:59:21;100853.59;;;0.89;100.00
3206;BME280;1615;53.602;11.418;2022-12-11T08:01:46;100790.41;;;0.67;100.00
3206;BME280;1615;53.602;11.418;2022-12-11T08:04:12;100819.81;;;0.86;100.00
3206;BME280;1615;53.602;11.418;2022-12-11T08:06:40;100826.44;;;1.02;100.00
3206;BME280;1615;53.602;11.418;2022-12-11T08:09:09;100830.44;;;1.11;100.00
3206;BME280;1615;53.602;11.418;2022-12-11T08:11:35;100769.81;;;0.72;100.00
3206;BME280;1615;53.602;11.418;2022-12-11T08:14:01;100826.72;;;1.12;100.00
3206;BME280;1615;53.602;11.418;2022-12-11T08:16:27;100831.19;;;1.18;100.00
3206;BME280;1615;53.602;11.418;2022-12-11T08:18:53;100833.53;;;1.26;100.00
3206;BME280;1615;53.602;11.418;2022-12-11T08:21:23;100834.84;;;0.94;100.00
3206;BME280;1615;53.602;11.418;2022-12-11T08:23:50;100841.81;;;1.01;100.00
3206;BME280;1615;53.602;11.418;2022-12-11T08:26:18;100839.25;;;1.06;100.00
3206;BME280;1615;53.602;11.418;2022-12-11T08:28:44;100852.44;;;1.26;100.00
3206;BME280;1615;53.602;11.418;2022-12-11T08:31:11;100840.13;;;1.30;100.00
3206;BME280;1615;53.602;11.418;2022-12-11T08:33:38;100837.88;;;1.27;100.00
3206;BME280;1615;53.602;11.418;2022-12-11T08:36:06;100839.28;;;1.29;100.00
3206;BME280;1615;53.602;11.418;2022-12-11T08:38:33;100832.25;;;1.28;100.00
3206;BME280;1615;53.602;11.418;2022-12-11T08:40:58;100764.25;;;0.97;100.00
3206;BME280;1615;53.602;11.418;2022-12-11T08:43:24;100825.75;;;1.47;100.00
3206;BME280;1615;53.602;11.418;2022-12-11T08:45:49;100815.97;;;1.58;100.00
3206;BME280;1615;53.602;11.418;2022-12-11T08:48:15;100813.63;;;1.61;100.00
3206;BME280;1615;53.602;11.418;2022-12-11T08:50:41;100829.03;;;1.61;100.00
3206;BME280;1615;53.602;11.418;2022-12-11T08:53:06;100825.84;;;1.64;100.00
3206;BME280;1615;53.602;11.418;2022-12-11T08:55:32;100839.47;;;1.69;100.00
3206;BME280;1615;53.602;11.418;2022-12-11T08:57:57;100835.25;;;1.73;100.00
3206;BME280;1615;53.602;11.418;2022-12-11T09:00:22;100827.63;;;1.81;100.00
3206;BME280;1615;53.602;11.418;2022-12-11T09:02:48;100827.19;;;1.84;100.00
3206;BME280;1615;53.602;11.418;2022-12-11T09:05:13;100828.78;;;1.97;100.00
3206;BME280;1615;53.602;11.418;2022-12-11T09:07:38;100840.09;;;1.94;100.00
3206;BME280;1615;53.602;11.418;2022-12-11T09:10:05;100834.81;;;1.99;100.00
3206;BME280;1615;53.602;11.418;2022-12-11T09:12:32;100831.50;;;1.97;100.00
3206;BME280;1615;53.602;11.418;2022-12-11T09:14:58;100790.16;;;1.62;100.00
3206;BME280;1615;53.602;11.418;2022-12-11T09:17:24;100845.38;;;1.89;100.00
3206;BME280;1615;53.602;11.418;2022-12-11T09:19:49;100851.03;;;1.99;100.00
3206;BME280;1615;53.602;11.418;2022-12-11T09:22:14;100851.59;;;2.12;100.00
3206;BME280;1615;53.602;11.418;2022-12-11T09:24:40;100850.31;;;2.15;100.00
3206;BME280;1615;53.602;11.418;2022-12-11T09:27:05;100848.19;;;2.17;100.00
3206;BME280;1615;53.602;11.418;2022-12-11T09:29:31;100843.13;;;2.20;100.00
3206;BME280;1615;53.602;11.418;2022-12-11T09:31:56;100852.19;;;2.14;100.00
3206;BME280;1615;53.602;11.418;2022-12-11T09:34:22;100840.56;;;2.14;100.00
3206;BME280;1615;53.602;11.418;2022-12-11T09:36:47;100834.44;;;2.07;100.00
3206;BME280;1615;53.602;11.418;2022-12-11T09:39:13;100788.06;;;1.87;100.00
3206;BME280;1615;53.602;11.418;2022-12-11T09:42:01;100831.38;;;2.15;100.00
3206;BME280;1615;53.602;11.418;2022-12-11T09:46:57;100833.13;;;2.21;100.00
3206;BME280;1615;53.602;11.418;2022-12-11T09:49:37;100821.38;;;2.27;100.00
3206;BME280;1615;53.602;11.418;2022-12-11T09:52:17;100817.81;;;2.26;100.00
3206;BME280;1615;53.602;11.418;2022-12-11T09:54:56;100639.75;;;1.16;100.00
3206;BME280;1615;53.602;11.418;2022-12-11T10:00:04;100813.09;;;2.45;100.00
3206;BME280;1615;53.602;11.418;2022-12-11T10:02:48;100805.44;;;2.53;100.00
3206;BME280;1615;53.602;11.418;2022-12-11T10:05:42;100809.19;;;2.52;100.00
3206;BME280;1615;53.602;11.418;2022-12-11T10:10:45;100800.38;;;2.57;100.00
3206;BME280;1615;53.602;11.418;2022-12-11T10:13:34;100805.28;;;2.60;100.00
3206;BME280;1615;53.602;11.418;2022-12-11T10:18:58;100753.53;;;2.17;100.00
3206;BME280;1615;53.602;11.418;2022-12-11T10:21:24;100802.97;;;2.52;100.00
3206;BME280;1615;53.602;11.418;2022-12-11T10:23:59;100787.41;;;2.59;100.00
3206;BME280;1615;53.602;11.418;2022-12-11T10:26:26;100784.34;;;2.67;100.00
3206;BME280;1615;53.602;11.418;2022-12-11T10:28:57;100778.19;;;2.71;100.00
3206;BME280;1615;53.602;11.418;2022-12-11T10:31:31;100771.06;;;2.82;100.00
3206;BME280;1615;53.602;11.418;2022-12-11T10:34:03;100775.03;;;2.91;100.00
3206;BME280;1615;53.602;11.418;2022-12-11T10:36:37;100764.78;;;2.93;100.00
3206;BME280;1615;53.602;11.418;2022-12-11T10:39:15;100766.78;;;2.97;100.00
3206;BME280;1615;53.602;11.418;2022-12-11T10:41:43;100759.16;;;3.11;100.00
3206;BME280;1615;53.602;11.418;2022-12-11T10:44:30;100760.78;;;3.12;100.00
3206;BME280;1615;53.602;11.418;2022-12-11T10:47:13;100755.03;;;3.25;100.00
3206;BME280;1615;53.602;11.418;2022-12-11T10:49:50;100756.63;;;3.21;100.00
3206;BME280;1615;53.602;11.418;2022-12-11T10:52:21;100746.91;;;3.08;100.00
3206;BME280;1615;53.602;11.418;2022-12-11T10:54:55;100749.97;;;3.12;100.00
3206;BME280;1615;53.602;11.418;2022-12-11T10:57:28;100735.25;;;3.08;100.00
3206;BME280;1615;53.602;11.418;2022-12-11T10:59:56;100736.66;;;3.10;100.00
3206;BME280;1615;53.602;11.418;2022-12-11T11:02:29;100735.19;;;3.19;100.00
3206;BME280;1615;53.602;11.418;2022-12-11T11:04:57;100741.78;;;3.23;100.00
3206;BME280;1615;53.602;11.418;2022-12-11T11:07:28;100692.47;;;2.77;100.00
3206;BME280;1615;53.602;11.418;2022-12-11T11:12:45;100749.47;;;3.15;100.00
3206;BME280;1615;53.602;11.418;2022-12-11T11:15:13;100722.78;;;3.07;100.00
3206;BME280;1615;53.602;11.418;2022-12-11T11:17:56;100736.19;;;3.13;100.00
3206;BME280;1615;53.602;11.418;2022-12-11T11:20:27;100735.44;;;3.01;100.00
3206;BME280;1615;53.602;11.418;2022-12-11T11:22:55;100745.03;;;2.92;100.00
3206;BME280;1615;53.602;11.418;2022-12-11T11:25:23;100737.28;;;2.84;100.00
3206;BME280;1615;53.602;11.418;2022-12-11T11:30:36;100738.44;;;2.72;100.00
3206;BME280;1615;53.602;11.418;2022-12-11T11:33:16;100728.66;;;2.71;100.00
3206;BME280;1615;53.602;11.418;2022-12-11T11:36:01;100723.50;;;2.69;100.00
3206;BME280;1615;53.602;11.418;2022-12-11T11:38:31;100641.06;;;2.16;100.00
3206;BME280;1615;53.602;11.418;2022-12-11T11:41:22;100708.31;;;2.68;100.00
3206;BME280;1615;53.602;11.418;2022-12-11T11:43:55;100714.97;;;2.77;100.00
3206;BME280;1615;53.602;11.418;2022-12-11T11:46:23;100714.72;;;2.79;100.00
3206;BME280;1615;53.602;11.418;2022-12-11T11:49:06;100721.91;;;2.73;100.00
3206;BME280;1615;53.602;11.418;2022-12-11T11:51:43;100720.06;;;2.74;100.00
3206;BME280;1615;53.602;11.418;2022-12-11T11:54:42;100652.63;;;2.28;100.00
3206;BME280;1615;53.602;11.418;2022-12-11T11:57:18;100715.81;;;2.78;100.00
3206;BME280;1615;53.602;11.418;2022-12-11T11:59:51;100719.41;;;2.83;100.00
3206;BME280;1615;53.602;11.418;2022-12-11T12:02:18;100715.56;;;2.96;100.00
3206;BME280;1615;53.602;11.418;2022-12-11T12:04:46;100711.63;;;3.03;100.00
3206;BME280;1615;53.602;11.418;2022-12-11T12:10:20;100711.53;;;2.82;100.00
3206;BME280;1615;53.602;11.418;2022-12-11T12:12:58;100717.75;;;2.82;100.00
3206;BME280;1615;53.602;11.418;2022-12-11T12:15:30;100719.16;;;2.85;100.00
3206;BME280;1615;53.602;11.418;2022-12-11T12:18:18;100717.63;;;2.89;100.00
3206;BME280;1615;53.602;11.418;2022-12-11T12:21:07;100715.66;;;3.01;100.00
3206;BME280;1615;53.602;11.418;2022-12-11T12:23:43;100709.25;;;3.07;100.00
3206;BME280;1615;53.602;11.418;2022-12-11T12:26:22;100718.28;;;3.12;100.00
3206;BME280;1615;53.602;11.418;2022-12-11T12:34:09;100715.66;;;3.01;100.00
3206;BME280;1615;53.602;11.418;2022-12-11T12:39:38;100705.91;;;3.00;100.00
3206;BME280;1615;53.602;11.418;2022-12-11T12:47:38;100642.34;;;2.41;100.00
3206;BME280;1615;53.602;11.418;2022-12-11T12:50:20;100639.00;;;2.51;100.00
3206;BME280;1615;53.602;11.418;2022-12-11T12:52:48;100701.84;;;2.86;100.00
3206;BME280;1615;53.602;11.418;2022-12-11T12:55:23;100701.28;;;2.84;100.00
3206;BME280;1615;53.602;11.418;2022-12-11T12:57:58;100704.22;;;2.82;100.00
3206;BME280;1615;53.602;11.418;2022-12-11T13:03:18;100693.78;;;2.58;100.00
3206;BME280;1615;53.602;11.418;2022-12-11T13:06:05;100702.28;;;2.50;100.00
3206;BME280;1615;53.602;11.418;2022-12-11T13:08:46;100648.34;;;2.15;100.00
3206;BME280;1615;53.602;11.418;2022-12-11T13:11:15;100693.13;;;2.51;100.00
3206;BME280;1615;53.602;11.418;2022-12-11T13:18:40;100697.75;;;2.39;100.00
3206;BME280;1615;53.602;11.418;2022-12-11T13:26:40;100706.53;;;2.46;100.00
3206;BME280;1615;53.602;11.418;2022-12-11T13:29:05;100693.13;;;2.51;100.00
3206;BME280;1615;53.602;11.418;2022-12-11T13:31:33;100697.69;;;2.50;100.00
3206;BME280;1615;53.602;11.418;2022-12-11T13:34:16;100694.56;;;2.42;100.00
3206;BME280;1615;53.602;11.418;2022-12-11T13:36:49;100722.28;;;2.49;100.00
3206;BME280;1615;53.602;11.418;2022-12-11T13:39:27;100705.06;;;2.55;100.00
3206;BME280;1615;53.602;11.418;2022-12-11T13:42:00;100707.53;;;2.40;100.00
3206;BME280;1615;53.602;11.418;2022-12-11T13:44:32;100617.69;;;1.82;100.00
3206;BME280;1615;53.602;11.418;2022-12-11T13:47:03;100643.47;;;2.01;100.00
3206;BME280;1615;53.602;11.418;2022-12-11T13:49:34;100707.84;;;2.43;100.00
3206;BME280;1615;53.602;11.418;2022-12-11T13:52:01;100718.50;;;2.50;100.00
3206;BME280;1615;53.602;11.418;2022-12-11T13:54:29;100717.88;;;2.31;100.00
3206;BME280;1615;53.602;11.418;2022-12-11T13:57:15;100706.91;;;2.38;100.00
3206;BME280;1615;53.602;11.418;2022-12-11T13:59:48;100651.47;;;1.96;100.00
3206;BME280;1615;53.602;11.418;2022-12-11T14:02:22;100715.16;;;2.31;100.00
3206;BME280;1615;53.602;11.418;2022-12-11T14:04:52;100677.91;;;2.05;100.00